Time;durP1;ratioP1;P1;durP2;ratioP2;P2;SDS_P1;SDS_P2;PMS_P1;PMS_P2;Temp;Humidity;BMP_temperature;BMP_pressure;BME280_temperature;BME280_humidity;BME280_pressure;Samples;Min_cycle;Max_cycle;Signal;HPM_P1;HPM_P2
2024/01/04 00:03:43;;;;;;;1.60;1.08;;;;;;;-147.20;100.00;63046.97;32065301;27;20031;-66
2024/01/04 00:18:43;;;;;;;1.33;0.80;;;;;;;-147.20;100.00;63046.97;32064180;27;20034;-66
2024/01/04 00:33:44;;;;;;;2.17;1.10;;;;;;;-147.20;100.00;63046.97;32061234;27;20029;-67
2024/01/04 00:48:44;;;;;;;4.22;1.25;;;;;;;-147.20;100.00;63046.97;32060396;27;20036;-66
2024/01/04 01:03:44;;;;;;;1.98;1.00;;;;;;;-147.20;100.00;63046.97;32057672;27;35992;-67
2024/01/04 01:18:45;;;;;;;4.22;1.38;;;;;;;-147.20;100.00;63046.97;32056105;27;34443;-67
2024/01/04 01:33:45;;;;;;;3.30;1.10;;;;;;;-147.20;100.00;63046.97;32054390;27;35697;-67
2024/01/04 01:48:46;;;;;;;2.90;0.95;;;;;;;-147.20;100.00;63046.97;32053704;27;20123;-67
2024/01/04 02:03:47;;;;;;;0.95;0.70;;;;;;;-147.20;100.00;63046.97;32034184;27;20035;-67
2024/01/04 02:18:47;;;;;;;1.80;1.00;;;;;;;-147.20;100.00;63046.97;32050996;27;20031;-67
2024/01/04 02:33:47;;;;;;;1.33;0.90;;;;;;;-147.20;100.00;63046.97;32048434;27;34444;-67
2024/01/04 02:48:47;;;;;;;1.52;0.60;;;;;;;-147.20;100.00;63046.97;32045560;27;35712;-66
2024/01/04 03:03:51;;;;;;;1.65;0.63;;;;;;;-147.20;100.00;63046.97;32027282;27;27512;-66
2024/01/04 03:18:51;;;;;;;0.40;0.40;;;;;;;-147.20;100.00;63046.97;32045608;27;20471;-66
2024/01/04 03:33:51;;;;;;;0.40;0.40;;;;;;;-147.20;100.00;63046.97;32044479;27;35990;-66
2024/01/04 03:48:52;;;;;;;1.90;0.45;;;;;;;-147.20;100.00;63046.97;32041977;27;20054;-66
2024/01/04 04:03:52;;;;;;;0.50;0.40;;;;;;;-147.20;100.00;63046.97;32049530;27;35687;-66
2024/01/04 04:18:52;;;;;;;1.48;1.15;;;;;;;-147.20;100.00;63046.97;32060761;27;29684;-67
2024/01/04 04:33:53;;;;;;;1.92;0.73;;;;;;;-147.20;100.00;63046.97;32058510;27;34228;-67
2024/01/04 04:48:55;;;;;;;0.40;0.30;;;;;;;-147.20;100.00;63046.97;32058326;27;20058;-67
2024/01/04 05:03:55;;;;;;;1.10;0.50;;;;;;;-147.20;100.00;63046.97;32058416;27;20027;-67
2024/01/04 05:18:55;;;;;;;1.67;0.50;;;;;;;-147.20;100.00;63046.97;32053620;27;33749;-67
2024/01/04 05:33:56;;;;;;;1.77;0.52;;;;;;;-147.20;100.00;63046.97;32052197;27;35976;-66
2024/01/04 05:48:56;;;;;;;2.65;0.52;;;;;;;-147.20;100.00;63046.97;32048775;27;20074;-67
2024/01/04 06:03:58;;;;;;;1.55;0.60;;;;;;;-147.20;100.00;63046.97;32048598;27;34877;-67
2024/01/04 06:18:58;;;;;;;2.10;1.17;;;;;;;-147.20;100.00;63046.97;32049829;27;20062;-67
2024/01/04 06:33:58;;;;;;;2.47;1.23;;;;;;;-147.20;100.00;63046.97;32045907;27;20235;-67
2024/01/04 06:48:59;;;;;;;4.18;1.75;;;;;;;-147.20;100.00;63046.97;32043775;27;34683;-67
2024/01/04 07:03:59;;;;;;;1.27;0.85;;;;;;;-147.20;100.00;63046.97;32042297;27;34014;-68
2024/01/04 07:18:59;;;;;;;7.28;1.35;;;;;;;-147.20;100.00;63046.97;32042610;27;34574;-67
2024/01/04 07:34:00;;;;;;;3.53;1.10;;;;;;;-147.20;100.00;63046.97;32025539;27;21023;-67
2024/01/04 07:49:01;;;;;;;2.88;1.48;;;;;;;-147.20;100.00;63046.97;32062096;27;20551;-67
2024/01/04 08:04:01;;;;;;;4.72;1.42;;;;;;;-147.20;100.00;63046.97;32062123;27;20046;-66
2024/01/04 08:19:01;;;;;;;3.08;1.60;;;;;;;-147.20;100.00;63046.97;32060889;27;20387;-67
2024/01/04 08:34:02;;;;;;;3.60;1.48;;;;;;;-147.20;100.00;63046.97;32058826;27;25598;-67
2024/01/04 08:49:04;;;;;;;4.63;1.40;;;;;;;-147.20;100.00;63046.97;32051613;27;20043;-67
2024/01/04 09:04:04;;;;;;;3.38;0.93;;;;;;;-147.20;100.00;63046.97;32054430;27;20039;-67
2024/01/04 09:19:05;;;;;;;2.00;0.93;;;;;;;-147.20;100.00;63046.97;32051282;27;20104;-67
2024/01/04 09:34:06;;;;;;;1.67;0.82;;;;;;;-147.20;100.00;63046.97;32051535;27;36227;-67
2024/01/04 09:49:08;;;;;;;1.85;0.85;;;;;;;-147.20;100.00;63046.97;32052531;27;20054;-67
2024/01/04 10:04:16;;;;;;;2.83;0.60;;;;;;;-147.20;100.00;63046.97;32050125;27;20039;-67
2024/01/04 10:19:17;;;;;;;0.85;0.60;;;;;;;-147.20;100.00;63046.97;32049788;27;20167;-67
2024/01/04 10:34:17;;;;;;;1.80;0.77;;;;;;;-147.20;100.00;63046.97;32046550;27;20556;-67
2024/01/04 10:49:17;;;;;;;1.02;0.77;;;;;;;-147.20;100.00;63046.97;32043453;27;20069;-67
2024/01/04 11:04:18;;;;;;;1.73;0.70;;;;;;;-147.20;100.00;63046.97;32044093;27;20419;-67
2024/01/04 11:20:00;;;;;;;3.83;0.90;;;;;;;-147.20;100.00;63046.97;32040505;27;20111;-67
2024/01/04 11:35:00;;;;;;;1.30;0.80;;;;;;;-147.20;100.00;63046.97;32026739;27;20043;-67
2024/01/04 11:50:03;;;;;;;1.33;0.70;;;;;;;-147.20;100.00;63046.97;32041812;27;20787;-67
2024/01/04 12:05:04;;;;;;;2.40;0.95;;;;;;;-147.20;100.00;63046.97;32040010;27;21063;-67
2024/01/04 12:20:09;;;;;;;2.80;1.00;;;;;;;-147.20;100.00;63046.97;32039564;27;20035;-67
2024/01/04 12:35:19;;;;;;;1.50;0.70;;;;;;;-147.20;100.00;63046.97;32056238;27;20035;-67
2024/01/04 12:50:19;;;;;;;1.85;0.60;;;;;;;-147.20;100.00;63046.97;32056188;27;20050;-67
2024/01/04 13:05:20;;;;;;;2.75;0.70;;;;;;;-147.20;100.00;63046.97;32055878;27;20986;-67
2024/01/04 13:20:21;;;;;;;0.63;0.50;;;;;;;-147.20;100.00;63046.97;32053659;27;20034;-67
2024/01/04 13:35:21;;;;;;;2.00;1.17;;;;;;;-147.20;100.00;63046.97;32050336;27;20062;-66
2024/01/04 13:50:21;;;;;;;2.58;1.30;;;;;;;-147.20;100.00;63046.97;32049923;27;33443;-67
2024/01/04 14:05:22;;;;;;;2.20;0.95;;;;;;;-147.20;100.00;63046.97;32031360;27;20438;-66
2024/01/04 14:20:23;;;;;;;1.17;0.63;;;;;;;-147.20;100.00;63046.97;32048260;27;34356;-67
2024/01/04 14:35:24;;;;;;;2.83;0.90;;;;;;;-147.20;100.00;63046.97;32046967;27;20053;-67
2024/01/04 14:50:25;;;;;;;1.13;0.50;;;;;;;-147.20;100.00;63046.97;32041936;27;20051;-67
2024/01/04 15:05:25;;;;;;;1.45;1.00;;;;;;;-147.20;100.00;63046.97;32043080;27;20027;-67
2024/01/04 15:20:27;;;;;;;1.77;1.10;;;;;;;-147.20;100.00;63046.97;32043117;27;20042;-66
2024/01/04 15:35:29;;;;;;;4.57;1.50;;;;;;;-147.20;100.00;63046.97;32042265;27;20023;-67
2024/01/04 15:50:29;;;;;;;1.30;1.00;;;;;;;-147.20;100.00;63046.97;32040100;27;20047;-67
2024/01/04 16:05:29;;;;;;;3.80;1.45;;;;;;;-147.20;100.00;63046.97;32057692;27;35847;-67
2024/01/04 16:20:29;;;;;;;1.75;1.00;;;;;;;-147.20;100.00;63046.97;32058826;27;34277;-67
2024/01/04 16:35:30;;;;;;;2.40;1.08;;;;;;;-147.20;100.00;63046.97;32058709;27;20035;-67
2024/01/04 16:50:30;;;;;;;1.55;0.93;;;;;;;-147.20;100.00;63046.97;32055450;27;35532;-67
2024/01/04 17:05:30;;;;;;;1.75;0.93;;;;;;;-147.20;100.00;63046.97;32054938;27;34291;-67
2024/01/04 17:20:30;;;;;;;2.60;1.23;;;;;;;-147.20;100.00;63046.97;32053340;27;34565;-67
2024/01/04 17:35:31;;;;;;;2.70;1.50;;;;;;;-147.20;100.00;63046.97;32052643;27;34445;-67
2024/01/04 17:50:32;;;;;;;4.10;1.58;;;;;;;-147.20;100.00;63046.97;32051033;27;20065;-67
2024/01/04 18:05:32;;;;;;;7.90;2.95;;;;;;;-147.20;100.00;63046.97;32049966;27;20031;-67
2024/01/04 18:20:32;;;;;;;3.13;1.50;;;;;;;-147.20;100.00;63046.97;32045600;27;34979;-67
2024/01/04 18:35:33;;;;;;;4.43;1.90;;;;;;;-147.20;100.00;63046.97;32043050;27;34663;-66
2024/01/04 18:50:33;;;;;;;2.03;1.17;;;;;;;-147.20;100.00;63046.97;32044328;27;20153;-66
2024/01/04 19:05:33;;;;;;;3.45;1.30;;;;;;;-147.20;100.00;63046.97;32043212;27;34351;-66
2024/01/04 19:20:34;;;;;;;1.63;1.20;;;;;;;-147.20;100.00;63046.97;32042785;27;34013;-66
2024/01/04 19:35:34;;;;;;;2.05;1.17;;;;;;;-147.20;100.00;63046.97;32170059;27;34609;-66
2024/01/04 19:50:36;;;;;;;2.38;1.10;;;;;;;-147.20;100.00;63046.97;32187980;27;20083;-65
2024/01/04 20:05:36;;;;;;;3.22;1.40;;;;;;;-147.20;100.00;63046.97;32187068;27;20035;-66
2024/01/04 20:20:36;;;;;;;2.67;1.33;;;;;;;-147.20;100.00;63046.97;32182013;27;33793;-66
2024/01/04 20:35:37;;;;;;;2.25;1.10;;;;;;;-147.20;100.00;63046.97;32181170;27;20395;-65
2024/01/04 20:50:37;;;;;;;19.15;9.15;;;;;;;-147.20;100.00;63046.97;32178417;27;34773;-64
2024/01/04 21:05:37;;;;;;;4.70;1.80;;;;;;;-147.20;100.00;63046.97;32179054;27;20566;-65
2024/01/04 21:20:38;;;;;;;2.50;1.48;;;;;;;-147.20;100.00;63046.97;32174036;27;20531;-65
2024/01/04 21:35:38;;;;;;;25.35;6.10;;;;;;;-147.20;100.00;63046.97;32172729;27;20420;-65
2024/01/04 21:50:39;;;;;;;1.88;0.80;;;;;;;-147.20;100.00;63046.97;32175162;27;33836;-65
2024/01/04 22:05:39;;;;;;;2.70;1.23;;;;;;;-147.20;100.00;63046.97;32173706;27;20048;-66
2024/01/04 22:20:40;;;;;;;4.75;1.98;;;;;;;-147.20;100.00;63046.97;32171201;27;34353;-65
2024/01/04 22:35:40;;;;;;;3.30;1.23;;;;;;;-147.20;100.00;63046.97;32170160;27;36334;-66
2024/01/04 22:50:40;;;;;;;1.75;1.23;;;;;;;-147.20;100.00;63046.97;32170107;27;32191;-66
2024/01/04 23:05:41;;;;;;;10.82;5.25;;;;;;;1.52;66.56;99314.03;32143251;27;36092;-67
2024/01/04 23:20:41;;;;;;;5.25;1.40;;;;;;;1.33;66.14;99301.66;32065049;27;20039;-67
2024/01/04 23:35:41;;;;;;;4.38;1.90;;;;;;;1.29;65.95;99327.34;32125294;27;41788;-69
2024/01/04 23:50:41;;;;;;;3.28;1.92;;;;;;;1.20;66.21;99322.06;32116679;27;40676;-67
